Time;durP1;ratioP1;P1;durP2;ratioP2;P2;SDS_P1;SDS_P2;PMS_P1;PMS_P2;Temp;Humidity;BMP_temperature;BMP_pressure;BME280_temperature;BME280_humidity;BME280_pressure;Samples;Min_cycle;Max_cycle;Signal;HPM_P1;HPM_P2
2022/05/19 00:02:00;;;;;;;15.90;11.25;;;16.40;99.90;;;;;;5057444;28;20503;-75
2022/05/19 00:04:26;;;;;;;17.90;10.93;;;;;;;;;;5048860;28;20029;-75
2022/05/19 00:06:52;;;;;;;15.15;10.52;;;;;;;;;;5051543;28;20033;-75
2022/05/19 00:09:19;;;;;;;22.15;11.60;;;;;;;;;;5052049;28;20037;-75
2022/05/19 00:11:46;;;;;;;19.17;10.88;;;16.10;99.90;;;;;;5034047;28;20033;-75
2022/05/19 00:14:12;;;;;;;17.48;10.60;;;;;;;;;;5050789;28;20039;-75
2022/05/19 00:16:38;;;;;;;15.90;11.95;;;;;;;;;;5038964;28;20167;-75
2022/05/19 00:19:05;;;;;;;17.20;11.90;;;;;;;;;;5051983;28;20044;-75
2022/05/19 00:21:31;;;;;;;16.73;11.52;;;;;;;;;;5049501;28;20072;-75
2022/05/19 00:23:57;;;;;;;17.58;11.65;;;;;;;;;;5050107;28;20067;-75
2022/05/19 00:26:23;;;;;;;21.98;12.90;;;;;;;;;;5052153;28;20450;-76
2022/05/19 00:28:49;;;;;;;15.32;11.07;;;;;;;;;;5061179;28;20056;-75
2022/05/19 00:31:16;;;;;;;16.10;11.77;;;;;;;;;;5037442;28;20033;-75
2022/05/19 00:33:42;;;;;;;19.65;12.38;;;;;;;;;;5051302;28;20457;-75
2022/05/19 00:36:09;;;;;;;17.08;11.60;;;;;;;;;;5054068;28;20071;-75
2022/05/19 00:38:35;;;;;;;20.77;13.05;;;;;;;;;;5049911;28;20029;-75
2022/05/19 00:41:02;;;;;;;19.90;12.70;;;;;;;;;;5052837;28;20123;-75
2022/05/19 00:43:32;;;;;;;20.88;12.15;;;;;;;;;;5052334;28;20044;-75
2022/05/19 00:46:18;;;;;;;19.52;12.68;;;;;;;;;;5059736;28;20051;-76
2022/05/19 00:48:53;;;;;;;21.10;12.57;;;;;;;;;;5051769;28;20028;-75
2022/05/19 00:51:23;;;;;;;18.08;13.15;;;16.40;99.90;;;;;;5051067;28;20086;-76
2022/05/19 00:53:49;;;;;;;19.10;13.05;;;;;;;;;;5051515;28;20452;-75
2022/05/19 00:56:22;;;;;;;17.50;12.45;;;;;;;;;;5051544;28;20036;-75
2022/05/19 00:58:47;;;;;;;;;;;;;;;;;;5051786;28;20029;-75
2022/05/19 01:03:56;;;;;;;20.98;13.20;;;;;;;;;;5885883;22;20020;-76
2022/05/19 01:06:24;;;;;;;21.63;12.93;;;;;;;;;;4974831;28;20047;-75
2022/05/19 01:08:57;;;;;;;20.95;13.27;;;;;;;;;;4983478;28;20482;-76
2022/05/19 01:11:23;;;;;;;16.17;13.02;;;;;;;;;;4978226;28;20094;-76
2022/05/19 01:13:51;;;;;;;21.38;13.57;;;;;;;;;;4968533;28;20026;-76
2022/05/19 01:16:18;;;;;;;14.95;12.02;;;;;;;;;;4986364;28;20121;-75
2022/05/19 01:18:45;;;;;;;30.23;13.30;;;;;;;;;;4992686;28;20089;-76
2022/05/19 01:21:13;;;;;;;23.02;14.00;;;16.00;99.90;;;;;;4974373;28;20097;-75
2022/05/19 01:23:52;;;;;;;18.88;13.40;;;;;;;;;;4976852;28;20035;-76
2022/05/19 01:26:18;;;;;;;26.83;14.35;;;;;;;;;;4988898;28;20041;-76
2022/05/19 01:28:45;;;;;;;17.33;13.57;;;;;;;;;;4970490;28;20043;-76
2022/05/19 01:31:29;;;;;;;18.73;13.80;;;;;;;;;;4987007;28;20094;-75
2022/05/19 01:33:56;;;;;;;28.50;15.13;;;;;;;;;;4977562;28;20034;-76
2022/05/19 01:36:22;;;;;;;19.58;13.30;;;;;;;;;;4974269;28;20022;-76
2022/05/19 01:38:51;;;;;;;17.30;12.65;;;;;;;;;;4972407;28;20497;-76
2022/05/19 01:41:32;;;;;;;20.13;13.25;;;;;;;;;;4982998;28;20041;-75
2022/05/19 01:44:13;;;;;;;23.20;14.30;;;;;;;;;;4983831;28;20150;-76
2022/05/19 01:46:40;;;;;;;17.10;13.80;;;;;;;;;;4986365;28;20026;-75
2022/05/19 01:49:10;;;;;;;23.40;14.93;;;;;;;;;;4973485;28;20031;-75
2022/05/19 01:51:42;;;;;;;22.05;14.20;;;;;;;;;;4957748;28;20031;-76
2022/05/19 01:54:23;;;;;;;25.38;16.27;;;;;;;;;;4984897;28;20027;-76
2022/05/19 01:56:52;;;;;;;22.63;14.93;;;;;;;;;;4973830;28;20429;-75
2022/05/19 01:59:21;;;;;;;20.08;14.77;;;;;;;;;;4979400;28;20031;-75
2022/05/19 02:01:52;;;;;;;20.33;14.57;;;;;;;;;;4991313;28;20042;-75
2022/05/19 02:04:38;;;;;;;19.20;15.35;;;;;;;;;;4972297;28;20046;-75
2022/05/19 02:07:07;;;;;;;23.27;15.82;;;;;;;;;;4988370;28;20031;-75
2022/05/19 02:10:06;;;;;;;21.80;14.25;;;;;;;;;;4988211;28;20140;-75
2022/05/19 02:12:33;;;;;;;17.73;14.18;;;;;;;;;;4930571;28;20046;-76
2022/05/19 02:15:02;;;;;;;20.85;15.02;;;;;;;;;;4993271;28;20097;-76
2022/05/19 02:17:29;;;;;;;22.33;15.32;;;;;;;;;;4971962;28;20030;-76
2022/05/19 02:20:03;;;;;;;25.13;16.20;;;16.00;99.90;;;;;;4952187;28;20089;-76
2022/05/19 02:22:33;;;;;;;25.45;16.55;;;;;;;;;;4973230;28;20371;-75
2022/05/19 02:25:01;;;;;;;25.17;16.08;;;;;;;;;;4971965;28;20019;-78
2022/05/19 02:27:35;;;;;;;28.77;17.13;;;;;;;;;;4982083;28;20557;-79
2022/05/19 02:30:02;;;;;;;26.95;17.85;;;;;;;;;;4992681;28;20034;-75
2022/05/19 02:32:29;;;;;;;32.42;20.27;;;;;;;;;;4984002;28;20130;-73
2022/05/19 02:34:55;;;;;;;32.17;22.02;;;;;;;;;;4990489;28;20026;-74
2022/05/19 02:37:21;;;;;;;26.65;18.05;;;;;;;;;;4985005;28;20037;-74
2022/05/19 02:39:47;;;;;;;27.75;17.45;;;;;;;;;;4987343;28;20034;-75
2022/05/19 02:42:13;;;;;;;28.08;19.00;;;;;;;;;;4990269;28;20038;-76
2022/05/19 02:44:39;;;;;;;29.52;17.88;;;;;;;;;;4989592;28;20034;-75
2022/05/19 02:47:05;;;;;;;30.00;18.58;;;;;;;;;;4999107;28;20034;-75
2022/05/19 02:49:31;;;;;;;26.92;18.83;;;;;;;;;;4990191;28;20046;-75
2022/05/19 02:51:57;;;;;;;30.15;18.20;;;;;;;;;;4992985;28;20942;-75
2022/05/19 02:54:23;;;;;;;29.13;20.42;;;;;;;;;;4983445;28;20078;-75
2022/05/19 02:56:49;;;;;;;25.80;18.85;;;;;;;;;;4972043;28;20050;-75
2022/05/19 02:59:15;;;;;;;26.27;19.45;;;;;;;;;;4982510;28;20421;-75
2022/05/19 03:01:41;;;;;;;24.77;19.45;;;;;;;;;;4994067;28;20053;-76
2022/05/19 03:04:07;;;;;;;29.17;19.73;;;;;;;;;;4988844;28;20058;-75
2022/05/19 03:06:34;;;;;;;27.55;19.58;;;;;;;;;;4990855;28;20097;-76
2022/05/19 03:09:00;;;;;;;24.52;18.40;;;;;;;;;;4980751;28;20038;-76
2022/05/19 03:11:26;;;;;;;29.52;18.40;;;;;;;;;;4986004;28;20050;-76
2022/05/19 03:13:52;;;;;;;25.83;18.98;;;;;;;;;;4985363;28;20039;-76
2022/05/19 03:16:18;;;;;;;35.58;21.13;;;;;;;;;;4964574;28;20057;-76
2022/05/19 03:18:44;;;;;;;32.38;20.02;;;;;;;;;;4973606;28;20031;-76
2022/05/19 03:21:10;;;;;;;25.55;19.52;;;;;;;;;;4971869;28;20039;-76
2022/05/19 03:23:36;;;;;;;30.70;19.30;;;;;;;;;;4975758;28;20533;-76
2022/05/19 03:26:02;;;;;;;29.67;20.13;;;;;;;;;;4986898;28;20085;-76
2022/05/19 03:28:28;;;;;;;25.50;19.70;;;;;;;;;;4987903;28;20054;-76
2022/05/19 03:30:54;;;;;;;25.27;18.65;;;;;;;;;;4976024;28;20053;-75
2022/05/19 03:33:20;;;;;;;31.25;19.25;;;;;;;;;;4984298;28;20034;-76
2022/05/19 03:35:58;;;;;;;27.80;20.27;;;;;;;;;;4976578;28;20042;-75
2022/05/19 03:38:24;;;;;;;32.33;21.10;;;;;;;;;;4975090;28;20029;-75
2022/05/19 03:40:50;;;;;;;30.10;18.92;;;;;;;;;;4982825;28;20037;-75
2022/05/19 03:43:16;;;;;;;27.15;20.15;;;;;;;;;;4978074;28;20031;-75
2022/05/19 03:45:42;;;;;;;34.58;21.10;;;;;;;;;;4989155;28;20097;-75
2022/05/19 03:48:09;;;;;;;34.22;21.20;;;;;;;;;;4973086;28;20038;-76
2022/05/19 03:50:35;;;;;;;28.30;21.50;;;;;;;;;;4976656;28;20393;-76
2022/05/19 03:53:01;;;;;;;31.80;22.88;;;;;;;;;;4954851;28;20039;-76
2022/05/19 03:55:27;;;;;;;40.35;23.50;;;;;;;;;;4978368;28;20061;-75
2022/05/19 03:57:54;;;;;;;33.67;24.00;;;;;;;;;;4957371;28;20070;-75
2022/05/19 04:00:21;;;;;;;29.77;21.65;;;;;;;;;;4961139;28;20036;-76
2022/05/19 04:02:47;;;;;;;34.88;24.77;;;;;;;;;;4982489;28;20126;-76
2022/05/19 04:05:13;;;;;;;39.38;25.05;;;;;;;;;;4971576;28;20059;-75
2022/05/19 04:07:40;;;;;;;32.17;22.25;;;;;;;;;;4972023;28;20050;-76
2022/05/19 04:10:07;;;;;;;35.85;24.40;;;;;;;;;;4971620;28;20066;-76
2022/05/19 04:12:33;;;;;;;38.60;24.95;;;;;;;;;;4991818;28;20086;-75
2022/05/19 04:15:00;;;;;;;37.63;24.83;;;;;;;;;;4991520;28;20497;-76
2022/05/19 04:17:26;;;;;;;34.42;24.95;;;;;;;;;;4984324;28;20065;-75
2022/05/19 04:19:52;;;;;;;39.33;25.38;;;;;;;;;;4974707;28;20031;-75
2022/05/19 04:22:18;;;;;;;43.95;26.55;;;;;;;;;;4954621;28;20043;-75
2022/05/19 04:24:44;;;;;;;37.58;25.58;;;;;;;;;;4972024;28;20050;-75
2022/05/19 04:27:14;;;;;;;38.75;25.83;;;;;;;;;;4971733;28;20137;-75
2022/05/19 04:29:40;;;;;;;37.47;26.90;;;;;;;;;;4984595;28;20082;-75
2022/05/19 04:32:06;;;;;;;43.30;27.70;;;;;;;;;;4986456;28;20042;-75
2022/05/19 04:34:32;;;;;;;39.33;27.30;;;;;;;;;;4987471;28;20109;-75
2022/05/19 04:36:58;;;;;;;44.08;27.98;;;;;;;;;;4984035;28;20114;-75
2022/05/19 04:39:24;;;;;;;38.90;28.25;;;;;;;;;;4986689;28;20027;-75
2022/05/19 04:41:50;;;;;;;39.17;27.77;;;;;;;;;;4981598;28;20042;-75
2022/05/19 04:44:20;;;;;;;40.05;28.88;;;;;;;;;;4984895;28;20389;-75
2022/05/19 04:46:46;;;;;;;40.75;29.05;;;;;;;;;;4976178;28;20481;-75
2022/05/19 04:49:12;;;;;;;33.88;26.48;;;;;;;;;;4990419;28;20046;-75
2022/05/19 04:51:38;;;;;;;37.33;27.17;;;;;;;;;;4975897;28;20042;-75
2022/05/19 04:54:04;;;;;;;42.67;26.98;;;;;;;;;;4994225;28;20401;-75
2022/05/19 04:56:30;;;;;;;44.05;27.88;;;;;;;;;;4976466;28;20039;-75
2022/05/19 04:58:57;;;;;;;37.90;27.42;;;;;;;;;;4967849;28;20576;-76
2022/05/19 05:01:23;;;;;;;35.75;27.35;;;;;;;;;;4984395;28;20125;-76
2022/05/19 05:03:49;;;;;;;38.10;26.65;;;;;;;;;;4991253;28;20086;-76
2022/05/19 05:06:15;;;;;;;39.47;27.42;;;;;;;;;;4958048;28;20027;-76
2022/05/19 05:08:41;;;;;;;39.90;27.83;;;;;;;;;;4976348;28;20490;-76
2022/05/19 05:11:07;;;;;;;38.53;26.20;;;;;;;;;;4971289;28;20050;-75
2022/05/19 05:13:33;;;;;;;43.35;29.20;;;;;;;;;;4960543;28;20026;-75
2022/05/19 05:15:59;;;;;;;36.35;26.77;;;;;;;;;;4988258;28;20093;-75
2022/05/19 05:18:25;;;;;;;37.92;28.27;;;;;;;;;;4963090;28;20035;-75
2022/05/19 05:20:51;;;;;;;41.90;27.55;;;;;;;;;;4970636;28;20043;-75
2022/05/19 05:23:17;;;;;;;37.38;26.67;;;;;;;;;;4982899;28;20445;-76
2022/05/19 05:25:43;;;;;;;36.50;26.95;;;;;;;;;;4975056;28;20039;-75
2022/05/19 05:28:09;;;;;;;36.33;27.65;;;;;;;;;;4982158;28;20049;-76
2022/05/19 05:30:35;;;;;;;37.55;27.27;;;;;;;;;;4985982;28;21045;-74
2022/05/19 05:33:10;;;;;;;39.72;28.20;;;;;;;;;;4977744;28;20544;-75
2022/05/19 05:35:36;;;;;;;41.47;28.08;;;;;;;;;;4984849;28;20081;-78
2022/05/19 05:38:02;;;;;;;34.40;26.38;;;;;;;;;;4982317;28;20030;-75
2022/05/19 05:40:28;;;;;;;34.03;26.58;;;;;;;;;;4983105;28;20039;-78
2022/05/19 05:42:55;;;;;;;33.35;26.52;;;;;;;;;;4961871;28;20125;-79
2022/05/19 05:45:21;;;;;;;39.70;26.27;;;;;;;;;;4968510;28;20019;-76
2022/05/19 05:47:47;;;;;;;34.20;25.95;;;;;;;;;;4988098;28;20081;-76
2022/05/19 05:50:13;;;;;;;39.67;25.15;;;;;;;;;;4981705;28;20393;-76
2022/05/19 05:52:39;;;;;;;34.00;22.80;;;;;;;;;;4976960;28;20031;-77
2022/05/19 05:55:05;;;;;;;27.80;21.17;;;;;;;;;;4976824;28;20034;-79
2022/05/19 05:57:31;;;;;;;29.30;20.63;;;;;;;;;;4958348;28;20552;-79
2022/05/19 05:59:57;;;;;;;29.48;20.52;;;;;;;;;;4981001;28;20117;-78
2022/05/19 06:02:23;;;;;;;30.70;19.70;;;;;;;;;;4999727;28;20490;-79
2022/05/19 06:04:50;;;;;;;33.45;20.23;;;;;;;;;;4988513;28;20054;-80
2022/05/19 06:07:16;;;;;;;28.55;19.65;;;;;;;;;;4986061;28;20459;-79
2022/05/19 06:09:43;;;;;;;33.42;18.88;;;;;;;;;;4989099;28;20077;-79
2022/05/19 06:12:09;;;;;;;30.42;20.20;;;;;;;;;;4973233;28;20058;-80
2022/05/19 06:14:35;;;;;;;29.70;20.42;;;;;;;;;;4986509;28;20458;-78
2022/05/19 06:17:01;;;;;;;30.58;21.98;;;;;;;;;;4992350;28;20042;-78
2022/05/19 06:19:27;;;;;;;29.42;21.98;;;;;;;;;;4976339;28;20041;-78
2022/05/19 06:21:53;;;;;;;32.30;21.73;;;;;;;;;;4981677;28;20042;-77
2022/05/19 06:24:19;;;;;;;32.90;21.83;;;;;;;;;;4993078;28;20034;-79
2022/05/19 06:26:45;;;;;;;27.67;20.42;;;;;;;;;;4974199;28;20030;-79
2022/05/19 06:29:12;;;;;;;33.55;21.52;;;;;;;;;;4961826;28;20035;-79
2022/05/19 06:31:38;;;;;;;32.30;22.45;;;;;;;;;;4959389;28;20049;-79
2022/05/19 06:34:05;;;;;;;32.22;21.58;;;;;;;;;;4990741;28;20052;-78
2022/05/19 06:36:31;;;;;;;36.75;24.70;;;;;;;;;;4985220;28;20042;-77
2022/05/19 06:38:58;;;;;;;33.85;23.63;;;;;;;;;;4977320;28;20118;-76
2022/05/19 06:44:09;;;;;;;33.97;24.20;;;;;;;;;;4980799;28;20045;-77
2022/05/19 06:46:35;;;;;;;32.15;22.42;;;;;;;;;;4973388;28;20042;-77
2022/05/19 06:49:02;;;;;;;29.77;22.42;;;;;;;;;;4960998;28;20031;-77
2022/05/19 06:51:29;;;;;;;29.80;22.27;;;;;;;;;;4975200;28;20133;-77
2022/05/19 06:53:55;;;;;;;25.85;20.55;;;;;;;;;;4978303;28;20476;-76
2022/05/19 06:56:22;;;;;;;28.92;21.33;;;;;;;;;;4983312;28;20038;-77
2022/05/19 06:58:48;;;;;;;31.48;23.55;;;;;;;;;;4979847;28;20030;-77
2022/05/19 07:01:15;;;;;;;26.15;21.73;;;;;;;;;;4975667;28;20400;-77
2022/05/19 07:03:41;;;;;;;34.15;24.42;;;;;;;;;;4979206;28;20070;-76
2022/05/19 07:06:07;;;;;;;30.30;20.83;;;;;;;;;;4977496;28;20490;-77
2022/05/19 07:08:33;;;;;;;28.90;20.23;;;;;;;;;;4980768;28;20034;-78
2022/05/19 07:10:59;;;;;;;31.00;22.90;;;;;;;;;;4976832;28;20088;-79
2022/05/19 07:13:24;;;;;;;29.63;23.02;;;;;;;;;;4979893;28;20070;-75
2022/05/19 07:15:50;;;;;;;53.25;38.55;;;;;;;;;;4981839;28;20037;-74
2022/05/19 07:18:16;;;;;;;60.00;43.05;;;;;;;;;;4974191;28;20540;-76
2022/05/19 07:20:48;;;;;;;33.20;23.38;;;;;;;;;;4977515;28;20058;-75
2022/05/19 07:23:24;;;;;;;32.75;22.08;;;;;;;;;;4964983;28;20022;-75
2022/05/19 07:25:51;;;;;;;28.92;22.58;;;;;;;;;;4975784;28;20469;-74
2022/05/19 07:28:21;;;;;;;26.08;21.00;;;;;;;;;;4966748;28;20102;-75
2022/05/19 07:30:47;;;;;;;31.85;19.92;;;;;;;;;;4980187;28;20375;-74
2022/05/19 07:33:14;;;;;;;32.35;21.90;;;;;;;;;;4978897;28;20038;-73
2022/05/19 07:35:41;;;;;;;29.08;22.60;;;;;;;;;;4954862;28;20044;-74
2022/05/19 07:38:07;;;;;;;32.05;22.70;;;;;;;;;;4961170;28;20041;-74
2022/05/19 07:40:33;;;;;;;31.92;21.98;;;;;;;;;;4961405;28;20082;-74
2022/05/19 07:43:35;;;;;;;30.27;21.52;;;;;;;;;;4984807;28;20123;-75
2022/05/19 07:45:45;;;;;;;27.25;20.52;;;;;;;;;;4971819;28;20039;-75
2022/05/19 07:48:11;;;;;;;27.10;21.75;;;;;;;;;;4958780;28;20059;-76
2022/05/19 07:50:37;;;;;;;27.80;21.38;;;;;;;;;;4974732;28;20069;-75
2022/05/19 07:53:03;;;;;;;31.10;21.95;;;;;;;;;;4980728;28;20038;-75
2022/05/19 07:55:29;;;;;;;30.67;22.13;;;;;;;;;;4988886;28;20125;-75
2022/05/19 07:57:56;;;;;;;32.15;21.75;;;;;;;;;;4959466;28;20533;-75
2022/05/19 08:00:23;;;;;;;28.58;19.63;;;;;;;;;;4981283;28;20027;-75
2022/05/19 08:02:51;;;;;;;31.77;21.75;;;;;;;;;;4985999;28;20047;-76
2022/05/19 08:05:17;;;;;;;24.35;19.42;;;;;;;;;;4976265;28;20122;-75
2022/05/19 08:07:43;;;;;;;24.25;18.85;;;;;;;;;;4976530;28;20443;-75
2022/05/19 08:10:24;;;;;;;26.65;20.77;;;;;;;;;;4988332;28;20044;-75
2022/05/19 08:15:36;;;;;;;24.77;19.95;;;;;;;;;;4975424;28;20045;-75
2022/05/19 08:18:04;;;;;;;28.52;18.20;;;;;;;;;;4978562;28;20118;-75
2022/05/19 08:20:30;;;;;;;30.17;19.23;;;;;;;;;;4966290;28;20397;-75
2022/05/19 08:22:56;;;;;;;31.30;19.90;;;;;;;;;;4980400;28;20026;-75
2022/05/19 08:25:26;;;;;;;25.20;18.73;;;;;;;;;;4961690;28;20037;-76
2022/05/19 08:27:53;;;;;;;26.52;19.00;;;;;;;;;;4992990;28;20347;-75
2022/05/19 08:30:20;;;;;;;24.10;17.80;;;;;;;;;;4998021;28;20052;-75
2022/05/19 08:32:46;;;;;;;26.65;17.60;;;;;;;;;;4977824;28;20070;-75
2022/05/19 08:35:12;;;;;;;19.67;15.88;;;;;;;;;;4965581;28;20047;-75
2022/05/19 08:37:38;;;;;;;26.77;17.65;;;;;;;;;;4967382;28;20466;-74
2022/05/19 08:40:04;;;;;;;23.98;16.70;;;;;;;;;;4988164;28;20031;-74
2022/05/19 08:42:32;;;;;;;26.25;16.67;;;;;;;;;;4981847;28;20050;-74
2022/05/19 08:45:01;;;;;;;23.98;15.32;;;;;;;;;;4992526;28;20548;-75
2022/05/19 08:47:29;;;;;;;20.80;17.10;;;;;;;;;;4984423;28;20101;-76
2022/05/19 08:49:57;;;;;;;24.02;17.60;;;;;;;;;;4978255;28;20066;-73
2022/05/19 08:52:26;;;;;;;26.98;19.48;;;21.10;99.90;;;;;;4979643;28;20030;-72
2022/05/19 08:54:56;;;;;;;19.35;14.70;;;;;;;;;;4986201;28;20037;-72
2022/05/19 08:57:25;;;;;;;21.20;15.23;;;;;;;;;;4979089;28;20351;-72
2022/05/19 09:00:11;;;;;;;18.10;14.40;;;;;;;;;;4986750;28;20061;-75
2022/05/19 09:02:39;;;;;;;24.73;14.55;;;;;;;;;;4977595;28;20042;-74
2022/05/19 09:05:11;;;;;;;23.15;16.17;;;;;;;;;;4981349;28;20129;-74
2022/05/19 09:07:58;;;;;;;17.67;13.82;;;;;;;;;;4975935;28;20057;-74
2022/05/19 09:10:27;;;;;;;17.73;14.32;;;;;;;;;;4991120;28;20030;-74
2022/05/19 09:13:21;;;;;;;21.42;14.50;;;22.50;99.90;;;;;;4992753;28;20042;-74
2022/05/19 09:15:47;;;;;;;16.52;13.10;;;;;;;;;;4987165;28;20045;-74
2022/05/19 09:18:16;;;;;;;19.52;13.43;;;;;;;;;;4958646;28;20043;-74
2022/05/19 09:20:53;;;;;;;19.85;14.27;;;;;;;;;;4986609;28;20113;-74
2022/05/19 09:23:20;;;;;;;16.90;13.20;;;22.80;99.90;;;;;;4963626;28;20031;-74
2022/05/19 09:25:51;;;;;;;18.83;13.48;;;22.70;99.90;;;;;;4983189;28;20034;-75
2022/05/19 09:28:18;;;;;;;22.45;13.15;;;;;;;;;;4978060;28;20519;-74
2022/05/19 09:30:47;;;;;;;16.75;13.35;;;;;;;;;;4970628;28;20030;-74
2022/05/19 09:33:17;;;;;;;18.25;13.13;;;23.00;99.90;;;;;;4978779;28;20398;-74
2022/05/19 09:35:47;;;;;;;18.27;14.48;;;;;;;;;;4979140;28;20042;-75
2022/05/19 09:38:24;;;;;;;30.38;24.55;;;;;;;;;;4971355;28;20101;-75
2022/05/19 09:40:50;;;;;;;19.85;14.68;;;;;;;;;;4977733;28;20034;-76
2022/05/19 09:43:36;;;;;;;14.48;12.23;;;;;;;;;;4975840;28;20098;-77
2022/05/19 09:46:29;;;;;;;24.73;13.23;;;;;;;;;;4982177;28;20046;-76
2022/05/19 09:49:03;;;;;;;19.83;13.38;;;;;;;;;;4944762;28;20074;-77
2022/05/19 09:51:39;;;;;;;20.95;13.00;;;;;;;;;;4974919;28;20054;-76
2022/05/19 09:54:05;;;;;;;15.18;11.88;;;;;;;;;;4977140;28;20038;-78
2022/05/19 09:56:37;;;;;;;17.08;11.93;;;;;;;;;;4977175;28;20038;-76
2022/05/19 09:59:05;;;;;;;20.27;12.60;;;;;;;;;;4977380;28;20038;-77
2022/05/19 10:01:36;;;;;;;15.40;10.65;;;;;;;;;;4983906;28;20045;-77
2022/05/19 10:04:06;;;;;;;18.35;11.15;;;;;;;;;;4973596;28;20068;-77
2022/05/19 10:06:46;;;;;;;13.70;9.77;;;25.60;99.90;;;;;;4975062;28;20041;-78
2022/05/19 10:09:16;;;;;;;14.60;9.55;;;25.80;99.90;;;;;;4966024;28;20039;-76
2022/05/19 10:11:48;;;;;;;17.10;9.55;;;;;;;;;;4976917;28;20097;-77
2022/05/19 10:14:15;;;;;;;;;;;25.50;99.90;;;;;;4974087;28;20038;-78
2022/05/19 10:16:50;;;;;;;12.05;8.60;;;;;;;;;;4975323;28;19954;-78
2022/05/19 10:19:53;;;;;;;12.20;9.20;;;25.00;99.90;;;;;;4977009;28;20101;-78
2022/05/19 10:23:04;;;;;;;15.00;10.05;;;25.00;99.90;;;;;;4970880;28;20450;-77
2022/05/19 10:25:30;;;;;;;12.05;8.27;;;;;;;;;;4961135;28;20037;-76
2022/05/19 10:31:19;;;;;;;14.77;8.90;;;;;;;;;;4973010;28;20086;-77
2022/05/19 10:33:55;;;;;;;11.98;8.05;;;;;;;;;;4973079;28;20042;-77
2022/05/19 10:37:17;;;;;;;13.18;8.77;;;26.20;99.90;;;;;;4977263;28;20046;-77
2022/05/19 10:39:43;;;;;;;;;;;;;;;;;;4920299;29;20047;-77
2022/05/19 10:42:24;;;;;;;10.68;8.27;;;27.10;99.90;;;;;;4922858;29;19925;-77
2022/05/19 10:45:08;;;;;;;9.75;7.85;;;;;;;;;;4956712;28;20042;-77
2022/05/19 10:48:01;;;;;;;9.43;6.80;;;27.90;99.90;;;;;;4978736;28;20118;-77
2022/05/19 10:50:30;;;;;;;7.95;6.70;;;28.10;99.90;;;;;;4975674;28;20023;-77
2022/05/19 10:53:15;;;;;;;11.02;6.25;;;;;;;;;;4975041;28;20050;-77
2022/05/19 10:55:53;;;;;;;10.07;6.40;;;;;;;;;;4970124;28;20034;-75
2022/05/19 10:58:38;;;;;;;8.63;5.30;;;;;;;;;;4968756;28;20027;-74
2022/05/19 11:01:07;;;;;;;11.93;7.63;;;;;;;;;;4972361;28;20093;-73
2022/05/19 11:03:36;;;;;;;7.25;5.60;;;;;;;;;;4978112;28;20031;-74
2022/05/19 11:06:23;;;;;;;7.22;4.85;;;;;;;;;;4979891;28;20082;-75
2022/05/19 11:09:29;;;;;;;4.85;4.13;;;28.60;99.90;;;;;;4985322;28;20019;-74
2022/05/19 11:12:13;;;;;;;7.57;4.60;;;28.60;99.90;;;;;;4980238;28;20034;-75
2022/05/19 11:14:50;;;;;;;8.40;3.83;;;28.60;99.90;;;;;;4969987;28;20158;-74
2022/05/19 11:17:34;;;;;;;6.45;3.47;;;;;;;;;;4960664;28;20544;-76
2022/05/19 11:20:10;;;;;;;4.80;3.03;;;28.70;99.90;;;;;;4957074;28;21936;-75
2022/05/19 11:22:38;;;;;;;8.05;3.20;;;29.10;99.90;;;;;;4966713;28;20070;-75
2022/05/19 11:28:30;;;;;;;5.83;3.20;;;28.40;99.90;;;;;;4980498;28;20046;-75
2022/05/19 11:31:00;;;;;;;5.25;2.50;;;;;;;;;;4981300;28;20328;-75
2022/05/19 11:33:33;;;;;;;10.27;2.92;;;28.30;99.90;;;;;;4982136;28;20018;-75
2022/05/19 11:36:04;;;;;;;4.70;2.80;;;28.00;99.90;;;;;;4978074;28;20038;-75
2022/05/19 11:38:52;;;;;;;6.38;3.58;;;;;;;;;;4973968;28;20081;-75
2022/05/19 11:41:26;;;;;;;4.68;3.20;;;;;;;;;;4981128;28;20137;-75
2022/05/19 11:43:57;;;;;;;6.55;3.70;;;;;;;;;;4976865;28;20023;-75
2022/05/19 11:46:28;;;;;;;4.43;2.70;;;;;;;;;;4972992;28;20041;-74
2022/05/19 11:57:42;;;;;;;5.40;3.67;;;;;;;;;;4973938;28;20054;-73
2022/05/19 12:00:11;;;;;;;3.55;3.08;;;;;;;;;;4979648;28;20576;-75
2022/05/19 12:02:48;;;;;;;5.57;2.90;;;;;;;;;;4958734;28;20126;-75
2022/05/19 12:05:17;;;;;;;8.43;2.70;;;;;;;;;;4975139;28;20153;-72
2022/05/19 12:07:50;;;;;;;6.25;3.35;;;;;;;;;;4955767;28;20026;-73
2022/05/19 12:10:21;;;;;;;4.70;3.08;;;;;;;;;;4985087;28;20022;-74
2022/05/19 12:12:54;;;;;;;6.45;2.88;;;;;;;;;;4960310;28;20093;-75
2022/05/19 12:15:21;;;;;;;4.35;2.70;;;;;;;;;;4975545;28;20040;-74
2022/05/19 12:17:55;;;;;;;4.32;3.05;;;;;;;;;;4976673;28;20026;-75
2022/05/19 12:20:41;;;;;;;27.20;6.22;;;;;;;;;;4976856;28;20034;-74
2022/05/19 12:23:12;;;;;;;25.50;7.55;;;;;;;;;;4985392;28;20117;-77
2022/05/19 12:25:42;;;;;;;12.75;4.70;;;;;;;;;;4974953;28;20034;-76
2022/05/19 12:28:15;;;;;;;11.20;3.00;;;;;;;;;;4983153;28;20039;-76
2022/05/19 12:33:52;;;;;;;8.07;3.22;;;;;;;;;;4971182;28;20622;-76
2022/05/19 12:36:35;;;;;;;8.15;3.00;;;21.90;99.90;;;;;;4965266;28;20637;-74
2022/05/19 12:39:29;;;;;;;8.35;3.80;;;;;;;;;;4975634;28;20041;-74
2022/05/19 12:41:57;;;;;;;6.97;4.22;;;;;;;;;;4983175;28;20050;-75
2022/05/19 12:44:32;;;;;;;6.72;3.88;;;;;;;;;;4987251;28;20386;-74
2022/05/19 12:47:03;;;;;;;10.25;4.15;;;;;;;;;;4979468;28;20030;-74
2022/05/19 12:49:31;;;;;;;8.32;3.30;;;;;;;;;;4986022;28;20026;-74
2022/05/19 12:51:57;;;;;;;6.32;3.63;;;;;;;;;;4991100;28;20048;-74
2022/05/19 12:54:25;;;;;;;7.68;3.95;;;;;;;;;;4993707;28;20485;-74
2022/05/19 12:56:52;;;;;;;8.35;4.57;;;;;;;;;;4969691;28;20034;-73
2022/05/19 12:59:23;;;;;;;8.05;3.90;;;;;;;;;;4983890;28;20062;-74
2022/05/19 13:01:52;;;;;;;7.82;4.45;;;20.40;99.90;;;;;;4982480;28;20030;-74
2022/05/19 13:04:30;;;;;;;4.88;3.17;;;20.60;99.90;;;;;;4974587;28;20122;-74
2022/05/19 13:07:15;;;;;;;5.38;3.13;;;20.50;99.90;;;;;;4983072;28;20482;-74
2022/05/19 13:09:49;;;;;;;7.03;3.40;;;20.40;99.90;;;;;;4975361;28;20070;-74
2022/05/19 13:12:23;;;;;;;8.32;3.58;;;20.30;99.90;;;;;;4990463;28;20553;-74
2022/05/19 13:14:58;;;;;;;5.85;2.85;;;20.10;99.90;;;;;;4994790;28;20044;-74
2022/05/19 13:17:43;;;;;;;5.13;2.53;;;20.20;99.90;;;;;;4977323;28;20039;-73
2022/05/19 13:20:22;;;;;;;4.40;2.70;;;20.00;99.90;;;;;;4968679;28;20034;-73
2022/05/19 13:23:00;;;;;;;6.22;2.92;;;20.00;99.90;;;;;;4979329;28;20548;-74
2022/05/19 13:25:26;;;;;;;8.18;3.10;;;;;;;;;;4975072;28;20027;-74
2022/05/19 13:30:49;;;;;;;6.32;2.83;;;;;;;;;;4985798;28;20493;-73
2022/05/19 13:33:18;;;;;;;4.47;2.10;;;;;;;;;;4979077;28;20042;-73
2022/05/19 13:35:45;;;;;;;4.55;1.95;;;;;;;;;;4981414;28;20026;-73
2022/05/19 13:38:19;;;;;;;8.32;2.40;;;19.70;99.90;;;;;;4985462;28;20031;-73
2022/05/19 13:40:46;;;;;;;7.57;2.05;;;;;;;;;;4991702;28;20084;-73
2022/05/19 13:43:13;;;;;;;6.93;1.73;;;;;;;;;;4985003;28;20129;-74
2022/05/19 13:45:48;;;;;;;7.32;1.70;;;;;;;;;;4980166;28;20041;-74
2022/05/19 13:48:22;;;;;;;7.88;2.28;;;;;;;;;;4986241;28;20030;-74
2022/05/19 13:50:49;;;;;;;4.93;2.30;;;;;;;;;;4993705;28;20038;-74
2022/05/19 13:53:17;;;;;;;4.22;1.70;;;;;;;;;;4985892;28;20038;-74
2022/05/19 13:55:44;;;;;;;5.70;2.20;;;;;;;;;;4982994;28;20134;-74
2022/05/19 13:58:16;;;;;;;8.02;2.20;;;;;;;;;;4987940;28;20023;-74
2022/05/19 14:00:42;;;;;;;5.65;2.33;;;;;;;;;;4992198;28;20026;-74
2022/05/19 14:03:08;;;;;;;6.35;2.13;;;;;;;;;;4974814;28;20375;-74
2022/05/19 14:05:42;;;;;;;4.22;1.73;;;;;;;;;;4971946;28;20066;-75
2022/05/19 14:08:10;;;;;;;3.55;1.90;;;;;;;;;;4974299;28;20031;-74
2022/05/19 14:10:39;;;;;;;4.45;2.13;;;;;;;;;;4974399;28;20031;-74
2022/05/19 14:13:05;;;;;;;3.40;1.80;;;;;;;;;;4972988;28;20031;-75
2022/05/19 14:15:34;;;;;;;3.78;2.22;;;;;;;;;;4980190;28;20070;-75
2022/05/19 14:18:07;;;;;;;5.32;2.20;;;;;;;;;;4984091;28;20381;-74
2022/05/19 14:20:41;;;;;;;2.67;1.70;;;;;;;;;;4991699;28;20046;-74
2022/05/19 14:23:10;;;;;;;6.93;2.53;;;;;;;;;;4993075;28;20037;-75
2022/05/19 14:25:38;;;;;;;5.45;1.98;;;;;;;;;;4974552;28;20115;-75
2022/05/19 14:28:23;;;;;;;3.17;2.28;;;;;;;;;;4958906;28;20034;-75
2022/05/19 14:30:49;;;;;;;7.72;2.60;;;;;;;;;;4988472;28;20053;-75
2022/05/19 14:33:21;;;;;;;4.72;2.65;;;;;;;;;;4975562;28;20057;-75
2022/05/19 14:35:48;;;;;;;;;;;;;;;;;;4986483;28;20463;-75
2022/05/19 14:38:19;;;;;;;8.02;3.22;;;;;;;;;;4973038;28;20031;-75
2022/05/19 14:43:47;;;;;;;13.52;2.70;;;;;;;;;;4984591;28;20049;-75
2022/05/19 14:46:15;;;;;;;6.85;3.10;;;;;;;;;;4981862;28;20094;-74
2022/05/19 14:48:47;;;;;;;4.75;2.72;;;;;;;;;;4979028;28;20126;-74
2022/05/19 14:51:18;;;;;;;8.23;2.33;;;;;;;;;;4978337;28;20030;-74
2022/05/19 14:53:45;;;;;;;5.50;2.50;;;;;;;;;;4989425;28;20500;-77
2022/05/19 14:56:11;;;;;;;5.18;2.53;;;;;;;;;;4968000;28;20022;-77
2022/05/19 14:59:00;;;;;;;3.42;2.30;;;;;;;;;;4966869;28;20061;-76
2022/05/19 15:01:26;;;;;;;6.90;2.58;;;;;;;;;;4975356;28;21981;-76